CheckWX is a tool to help pilots better visualize weather data.  It is not intended as a substitute for an official pre-flight weather briefing.

10:07:25 UTC

KFUL METAR
Fullerton Municipal Airport
Fullerton, California, USA
Current

14 mins ago

KFUL 040953Z AUTO 00000KT 10SM CLR 19/14 A2995 RMK AO2 SLP141 T01940144
Observed
Jul-4 @ 09:53 UTC
Visibility
10 SM
Flight Rules
VFR
Cloud Levels
  • Clear skies
Temperature
19°C / 66°F
Dewpoint
14°C / 57°F
Humidity
73%
Altimeter
29.95" Hg
Pressure
1014.22 hPa
Previous

1 hour ago

KFUL 040853Z AUTO 00000KT 10SM CLR 19/14 A2996 RMK AO2 SLP142 T01940144 57002
Observed
Jul-4 @ 08:53 UTC
Visibility
10 SM
Flight Rules
VFR
Cloud Levels
  • Clear skies
Temperature
19°C / 66°F
Dewpoint
14°C / 57°F
Humidity
73%
Altimeter
29.96" Hg
Pressure
1014.52 hPa
Previous

2 hours ago

KFUL 040753Z AUTO 00000KT 10SM CLR 20/14 A2996 RMK AO2 SLP143 T02000144 403170167
Observed
Jul-4 @ 07:53 UTC
Visibility
10 SM
Flight Rules
VFR
Cloud Levels
  • Clear skies
Dewpoint
14°C / 57°F
Humidity
69%
Altimeter
29.96" Hg
Pressure
1014.52 hPa